Impacts TAF Board
For situational awareness. Not to be used for flight planning purposes.
IDs:

KSEA - Seattle-Tacoma Intl, WA, US

Issued at 0528 UTC 22 Oct 2021
Updated at 0737 UTC 22 Oct 2021
Potential Impact None Slight Moderate High
Time0653Z 22/08Z 22/09Z 22/10Z 22/11Z 22/12Z 22/13Z 22/14Z 22/15Z 22/16Z 22/17Z 22/18Z 22/19Z 22/20Z>>
Type OBS PRVL PRVL PRVL PRVL PRVL PRVL PRVL PRVL PRVL PRVL PRVL PRVL PRVL
VIS 9 6 6 6 >6 >6 >6 >6 >6 >6 >6 >6 >6 >6
CIG 35 20 20 20 25 25 25 25 25 25 25 25 30 30
Cover OVC OVC OVC OVC OVC OVC OVC OVC OVC OVC OVC OVC OVC OVC
FltCat VFR MVFR MVFR MVFR MVFR MVFR MVFR MVFR MVFR MVFR MVFR MVFR MVFR MVFR
WX -RA -RA BR -RA BR -RA BR -SHRA -SHRA -SHRA -SHRA -SHRA -SHRA -SHRA -SHRA VCSH VCSH
WDir 120 170 170 170 170 170 170 170 170 170 170 170 190 190
WSpd 7 6 6 6 6 6 6 6 6 6 6 6 7 7
WGst -- -- -- -- -- -- -- -- -- -- -- -- -- --
Raw TAF
KSEA 220528Z 2206/2312 15008KT 4SM RA BR SCT015 OVC025
  FM220700 17006KT 6SM -RA BR OVC020
  FM221100 17006KT P6SM -SHRA BKN025 OVC035
  FM221900 19007KT P6SM VCSH BKN030 OVC050
  FM230200 20007KT P6SM VCSH BKN035
  FM231000 16007KT P6SM -RA OVC030


Raw METAR
KSEA 220653Z 12007KT 9SM -RA BKN035 BKN049 OVC075 13/11 A2979 RMK AO2 SLP093 P0007 T01280111
KSEA 220553Z 13008KT 100V160 6SM -RA BR OVC065 14/12 A2981 RMK AO2 SLP099 P0007 60040 T01390117 10200 20122 51004
KSEA 220453Z VRB06KT 6SM -RA BR OVC070 14/12 A2980 RMK AO2 SLP097 P0010 T01390117

METAR Board
Radar Display
Forecast Discussion
For situational awareness. Not to be used for flight planning purposes.